sensor_id;sensor_type;location;lat;lon;timestamp;temperature;humidity
23597;DHT22;40226;50.874;4.394;2023-06-19T00:01:21;19.90;90.10
23597;DHT22;40226;50.874;4.394;2023-06-19T00:03:46;19.90;93.50
23597;DHT22;40226;50.874;4.394;2023-06-19T00:06:12;19.80;95.10
23597;DHT22;40226;50.874;4.394;2023-06-19T00:08:38;19.70;99.60
23597;DHT22;40226;50.874;4.394;2023-06-19T00:11:07;19.70;99.90
23597;DHT22;40226;50.874;4.394;2023-06-19T00:13:32;19.70;99.90
23597;DHT22;40226;50.874;4.394;2023-06-19T00:16:00;19.60;99.90
23597;DHT22;40226;50.874;4.394;2023-06-19T00:18:28;19.70;99.90
23597;DHT22;40226;50.874;4.394;2023-06-19T00:20:53;19.70;99.90
23597;DHT22;40226;50.874;4.394;2023-06-19T00:23:22;19.80;99.90
23597;DHT22;40226;50.874;4.394;2023-06-19T00:25:47;19.80;99.90
23597;DHT22;40226;50.874;4.394;2023-06-19T00:28:13;19.80;99.90
23597;DHT22;40226;50.874;4.394;2023-06-19T00:30:40;19.90;99.90
23597;DHT22;40226;50.874;4.394;2023-06-19T00:33:07;19.80;99.90
23597;DHT22;40226;50.874;4.394;2023-06-19T00:35:33;19.70;99.90
23597;DHT22;40226;50.874;4.394;2023-06-19T00:37:58;19.70;99.90
23597;DHT22;40226;50.874;4.394;2023-06-19T00:40:29;19.70;99.90
23597;DHT22;40226;50.874;4.394;2023-06-19T00:42:55;19.70;99.90
23597;DHT22;40226;50.874;4.394;2023-06-19T00:45:33;19.70;99.90
23597;DHT22;40226;50.874;4.394;2023-06-19T00:48:06;19.60;99.90
23597;DHT22;40226;50.874;4.394;2023-06-19T00:50:34;19.50;99.90
23597;DHT22;40226;50.874;4.394;2023-06-19T00:53:03;19.50;99.90
23597;DHT22;40226;50.874;4.394;2023-06-19T00:55:39;19.70;99.90
23597;DHT22;40226;50.874;4.394;2023-06-19T00:58:15;19.60;99.90
23597;DHT22;40226;50.874;4.394;2023-06-19T01:00:42;19.60;99.90
23597;DHT22;40226;50.874;4.394;2023-06-19T01:03:30;19.60;99.90
23597;DHT22;40226;50.874;4.394;2023-06-19T01:06:13;19.60;99.90
23597;DHT22;40226;50.874;4.394;2023-06-19T01:09:04;19.60;99.90
23597;DHT22;40226;50.874;4.394;2023-06-19T01:11:35;19.60;99.90
23597;DHT22;40226;50.874;4.394;2023-06-19T01:14:14;19.60;99.90
23597;DHT22;40226;50.874;4.394;2023-06-19T01:16:42;19.60;99.90
23597;DHT22;40226;50.874;4.394;2023-06-19T01:19:10;19.60;99.90
23597;DHT22;40226;50.874;4.394;2023-06-19T01:21:42;19.60;99.90
23597;DHT22;40226;50.874;4.394;2023-06-19T01:24:08;19.70;99.90
23597;DHT22;40226;50.874;4.394;2023-06-19T01:26:34;19.50;99.90
23597;DHT22;40226;50.874;4.394;2023-06-19T01:28:59;19.50;99.90
23597;DHT22;40226;50.874;4.394;2023-06-19T01:33:55;19.50;99.90
23597;DHT22;40226;50.874;4.394;2023-06-19T01:36:23;19.50;99.90
23597;DHT22;40226;50.874;4.394;2023-06-19T01:38:50;19.50;99.90
23597;DHT22;40226;50.874;4.394;2023-06-19T01:41:17;19.50;99.90
23597;DHT22;40226;50.874;4.394;2023-06-19T01:43:45;19.50;99.90
23597;DHT22;40226;50.874;4.394;2023-06-19T01:46:11;19.50;99.90
23597;DHT22;40226;50.874;4.394;2023-06-19T01:48:38;19.60;99.90
23597;DHT22;40226;50.874;4.394;2023-06-19T01:51:11;19.60;99.90
23597;DHT22;40226;50.874;4.394;2023-06-19T01:53:36;19.50;99.90
23597;DHT22;40226;50.874;4.394;2023-06-19T01:56:02;19.40;99.90
23597;DHT22;40226;50.874;4.394;2023-06-19T01:58:28;19.50;99.90
23597;DHT22;40226;50.874;4.394;2023-06-19T02:00:53;19.60;99.90
23597;DHT22;40226;50.874;4.394;2023-06-19T02:03:19;19.50;99.90
23597;DHT22;40226;50.874;4.394;2023-06-19T02:05:45;19.60;99.90
23597;DHT22;40226;50.874;4.394;2023-06-19T02:08:10;19.50;99.90
23597;DHT22;40226;50.874;4.394;2023-06-19T02:10:36;19.30;99.90
23597;DHT22;40226;50.874;4.394;2023-06-19T02:13:02;19.40;99.90
23597;DHT22;40226;50.874;4.394;2023-06-19T02:15:28;19.40;99.90
23597;DHT22;40226;50.874;4.394;2023-06-19T02:17:56;19.40;99.90
23597;DHT22;40226;50.874;4.394;2023-06-19T02:20:23;19.50;99.90
23597;DHT22;40226;50.874;4.394;2023-06-19T02:22:50;19.60;99.90
23597;DHT22;40226;50.874;4.394;2023-06-19T02:25:16;19.50;99.90
23597;DHT22;40226;50.874;4.394;2023-06-19T02:27:42;19.50;99.90
23597;DHT22;40226;50.874;4.394;2023-06-19T02:30:08;19.60;99.90
23597;DHT22;40226;50.874;4.394;2023-06-19T02:32:34;19.60;99.90
23597;DHT22;40226;50.874;4.394;2023-06-19T02:34:59;19.80;99.90
23597;DHT22;40226;50.874;4.394;2023-06-19T02:37:25;19.70;99.90
23597;DHT22;40226;50.874;4.394;2023-06-19T02:39:52;19.70;99.90
23597;DHT22;40226;50.874;4.394;2023-06-19T02:42:18;19.70;99.90
23597;DHT22;40226;50.874;4.394;2023-06-19T02:44:45;19.80;99.90
23597;DHT22;40226;50.874;4.394;2023-06-19T02:47:11;19.90;99.90
23597;DHT22;40226;50.874;4.394;2023-06-19T02:49:37;19.80;99.90
23597;DHT22;40226;50.874;4.394;2023-06-19T02:52:03;19.80;99.90
23597;DHT22;40226;50.874;4.394;2023-06-19T02:54:29;19.80;99.90
23597;DHT22;40226;50.874;4.394;2023-06-19T02:56:55;19.80;99.90
23597;DHT22;40226;50.874;4.394;2023-06-19T02:59:20;19.70;99.90
23597;DHT22;40226;50.874;4.394;2023-06-19T03:01:46;19.80;99.90
23597;DHT22;40226;50.874;4.394;2023-06-19T03:04:13;19.80;99.90
23597;DHT22;40226;50.874;4.394;2023-06-19T03:06:38;19.80;99.90
23597;DHT22;40226;50.874;4.394;2023-06-19T03:09:06;19.70;99.90
23597;DHT22;40226;50.874;4.394;2023-06-19T03:11:38;19.70;99.90
23597;DHT22;40226;50.874;4.394;2023-06-19T03:14:04;19.80;99.90
23597;DHT22;40226;50.874;4.394;2023-06-19T03:16:33;19.80;99.90
23597;DHT22;40226;50.874;4.394;2023-06-19T03:18:58;19.90;99.90
23597;DHT22;40226;50.874;4.394;2023-06-19T03:21:24;20.00;99.90
23597;DHT22;40226;50.874;4.394;2023-06-19T03:23:50;19.80;99.90
23597;DHT22;40226;50.874;4.394;2023-06-19T03:26:15;19.70;99.90
23597;DHT22;40226;50.874;4.394;2023-06-19T03:28:42;19.50;99.90
23597;DHT22;40226;50.874;4.394;2023-06-19T03:31:08;19.60;99.90
23597;DHT22;40226;50.874;4.394;2023-06-19T03:33:33;19.60;99.90
23597;DHT22;40226;50.874;4.394;2023-06-19T03:35:59;19.50;99.90
23597;DHT22;40226;50.874;4.394;2023-06-19T03:38:24;19.60;99.90
23597;DHT22;40226;50.874;4.394;2023-06-19T03:40:50;19.60;99.90
23597;DHT22;40226;50.874;4.394;2023-06-19T03:43:16;19.60;99.90
23597;DHT22;40226;50.874;4.394;2023-06-19T03:45:42;19.60;99.90
23597;DHT22;40226;50.874;4.394;2023-06-19T03:48:07;19.50;99.90
23597;DHT22;40226;50.874;4.394;2023-06-19T03:50:33;19.50;99.90
23597;DHT22;40226;50.874;4.394;2023-06-19T03:53:00;19.60;99.90
23597;DHT22;40226;50.874;4.394;2023-06-19T03:55:25;19.50;99.90
23597;DHT22;40226;50.874;4.394;2023-06-19T03:57:51;19.50;99.90
23597;DHT22;40226;50.874;4.394;2023-06-19T04:00:18;19.50;99.90
23597;DHT22;40226;50.874;4.394;2023-06-19T04:02:44;19.40;99.90
23597;DHT22;40226;50.874;4.394;2023-06-19T04:05:14;19.40;99.90
23597;DHT22;40226;50.874;4.394;2023-06-19T04:07:41;19.40;99.90
23597;DHT22;40226;50.874;4.394;2023-06-19T04:10:07;19.40;99.90
23597;DHT22;40226;50.874;4.394;2023-06-19T04:12:33;19.20;99.90
23597;DHT22;40226;50.874;4.394;2023-06-19T04:14:59;19.20;99.90
23597;DHT22;40226;50.874;4.394;2023-06-19T04:17:24;19.10;99.90
23597;DHT22;40226;50.874;4.394;2023-06-19T04:19:50;19.10;99.90
23597;DHT22;40226;50.874;4.394;2023-06-19T04:22:16;19.10;99.90
23597;DHT22;40226;50.874;4.394;2023-06-19T04:24:43;19.00;99.90
23597;DHT22;40226;50.874;4.394;2023-06-19T04:27:09;19.10;99.90
23597;DHT22;40226;50.874;4.394;2023-06-19T04:29:34;19.10;99.90
23597;DHT22;40226;50.874;4.394;2023-06-19T04:32:01;19.00;99.90
23597;DHT22;40226;50.874;4.394;2023-06-19T04:34:28;19.00;99.90
23597;DHT22;40226;50.874;4.394;2023-06-19T04:36:54;19.00;98.90
23597;DHT22;40226;50.874;4.394;2023-06-19T04:39:24;19.10;98.50
23597;DHT22;40226;50.874;4.394;2023-06-19T04:41:49;19.20;93.60
23597;DHT22;40226;50.874;4.394;2023-06-19T04:44:15;19.30;94.60
23597;DHT22;40226;50.874;4.394;2023-06-19T04:46:41;19.20;96.90
23597;DHT22;40226;50.874;4.394;2023-06-19T04:49:07;19.20;99.30
23597;DHT22;40226;50.874;4.394;2023-06-19T04:51:34;19.10;99.90
23597;DHT22;40226;50.874;4.394;2023-06-19T04:54:00;19.00;99.90
23597;DHT22;40226;50.874;4.394;2023-06-19T04:56:25;19.00;99.90
23597;DHT22;40226;50.874;4.394;2023-06-19T04:58:51;19.20;99.90
23597;DHT22;40226;50.874;4.394;2023-06-19T05:01:17;19.30;99.90
23597;DHT22;40226;50.874;4.394;2023-06-19T05:03:45;19.10;99.90
23597;DHT22;40226;50.874;4.394;2023-06-19T05:06:14;18.90;99.90
23597;DHT22;40226;50.874;4.394;2023-06-19T05:08:39;19.00;99.90
23597;DHT22;40226;50.874;4.394;2023-06-19T05:11:05;19.10;99.90
23597;DHT22;40226;50.874;4.394;2023-06-19T05:13:30;19.10;99.90
23597;DHT22;40226;50.874;4.394;2023-06-19T05:15:56;19.10;99.90
23597;DHT22;40226;50.874;4.394;2023-06-19T05:18:22;19.00;99.90
23597;DHT22;40226;50.874;4.394;2023-06-19T05:20:47;18.90;99.90
23597;DHT22;40226;50.874;4.394;2023-06-19T05:23:13;18.90;99.90
23597;DHT22;40226;50.874;4.394;2023-06-19T05:25:38;19.10;99.90
23597;DHT22;40226;50.874;4.394;2023-06-19T05:28:04;19.20;99.90
23597;DHT22;40226;50.874;4.394;2023-06-19T05:30:30;19.10;99.90
23597;DHT22;40226;50.874;4.394;2023-06-19T05:32:56;19.00;99.90
23597;DHT22;40226;50.874;4.394;2023-06-19T05:35:21;19.00;99.90
23597;DHT22;40226;50.874;4.394;2023-06-19T05:37:47;19.00;99.90
23597;DHT22;40226;50.874;4.394;2023-06-19T05:40:13;19.10;99.90
23597;DHT22;40226;50.874;4.394;2023-06-19T05:42:40;19.10;99.90
23597;DHT22;40226;50.874;4.394;2023-06-19T05:45:06;18.90;99.90
23597;DHT22;40226;50.874;4.394;2023-06-19T05:47:32;18.80;99.90
23597;DHT22;40226;50.874;4.394;2023-06-19T05:49:57;18.80;99.90
23597;DHT22;40226;50.874;4.394;2023-06-19T05:52:23;18.80;99.90
23597;DHT22;40226;50.874;4.394;2023-06-19T05:54:49;18.70;99.90
23597;DHT22;40226;50.874;4.394;2023-06-19T05:57:15;18.70;99.90
23597;DHT22;40226;50.874;4.394;2023-06-19T05:59:42;18.80;99.90
23597;DHT22;40226;50.874;4.394;2023-06-19T06:02:07;18.90;99.90
23597;DHT22;40226;50.874;4.394;2023-06-19T06:04:33;19.00;98.90
23597;DHT22;40226;50.874;4.394;2023-06-19T06:07:02;18.80;99.40
23597;DHT22;40226;50.874;4.394;2023-06-19T06:09:29;18.80;98.70
23597;DHT22;40226;50.874;4.394;2023-06-19T06:11:54;19.10;95.80
23597;DHT22;40226;50.874;4.394;2023-06-19T06:14:20;19.10;87.40
23597;DHT22;40226;50.874;4.394;2023-06-19T06:16:46;19.00;92.20
23597;DHT22;40226;50.874;4.394;2023-06-19T06:19:11;19.10;89.90
23597;DHT22;40226;50.874;4.394;2023-06-19T06:21:37;18.80;94.30
23597;DHT22;40226;50.874;4.394;2023-06-19T06:24:03;18.90;92.30
23597;DHT22;40226;50.874;4.394;2023-06-19T06:26:28;18.90;93.90
23597;DHT22;40226;50.874;4.394;2023-06-19T06:28:54;18.80;93.80
23597;DHT22;40226;50.874;4.394;2023-06-19T06:31:22;18.90;90.40
23597;DHT22;40226;50.874;4.394;2023-06-19T06:33:48;19.10;85.60
23597;DHT22;40226;50.874;4.394;2023-06-19T06:36:17;19.40;72.90
23597;DHT22;40226;50.874;4.394;2023-06-19T06:38:43;19.40;45.60
23597;DHT22;40226;50.874;4.394;2023-06-19T06:41:08;19.30;51.20
23597;DHT22;40226;50.874;4.394;2023-06-19T06:43:34;19.10;57.10
23597;DHT22;40226;50.874;4.394;2023-06-19T06:46:00;19.10;68.30
23597;DHT22;40226;50.874;4.394;2023-06-19T06:48:26;19.20;59.70
23597;DHT22;40226;50.874;4.394;2023-06-19T06:50:51;19.20;57.40
23597;DHT22;40226;50.874;4.394;2023-06-19T06:53:25;19.20;52.10
23597;DHT22;40226;50.874;4.394;2023-06-19T06:55:51;19.10;49.50
23597;DHT22;40226;50.874;4.394;2023-06-19T06:58:17;19.20;44.10
23597;DHT22;40226;50.874;4.394;2023-06-19T07:00:44;19.30;41.30
23597;DHT22;40226;50.874;4.394;2023-06-19T07:03:09;19.30;32.90
23597;DHT22;40226;50.874;4.394;2023-06-19T07:05:35;19.40;14.60
23597;DHT22;40226;50.874;4.394;2023-06-19T07:08:01;19.50;13.60
23597;DHT22;40226;50.874;4.394;2023-06-19T07:10:27;19.80;1.00
23597;DHT22;40226;50.874;4.394;2023-06-19T07:12:53;19.50;1.00
23597;DHT22;40226;50.874;4.394;2023-06-19T07:15:18;19.30;1.00
23597;DHT22;40226;50.874;4.394;2023-06-19T07:17:44;19.20;1.00
23597;DHT22;40226;50.874;4.394;2023-06-19T07:20:10;19.20;1.00
23597;DHT22;40226;50.874;4.394;2023-06-19T07:22:36;19.20;1.00
23597;DHT22;40226;50.874;4.394;2023-06-19T07:25:02;19.40;1.00
23597;DHT22;40226;50.874;4.394;2023-06-19T07:27:29;19.40;1.00
23597;DHT22;40226;50.874;4.394;2023-06-19T07:29:55;19.50;1.00
23597;DHT22;40226;50.874;4.394;2023-06-19T07:32:21;19.60;1.00
23597;DHT22;40226;50.874;4.394;2023-06-19T07:34:46;19.70;1.00
23597;DHT22;40226;50.874;4.394;2023-06-19T07:37:12;19.90;1.00
23597;DHT22;40226;50.874;4.394;2023-06-19T07:39:44;20.00;1.00
23597;DHT22;40226;50.874;4.394;2023-06-19T07:42:10;20.10;1.00
23597;DHT22;40226;50.874;4.394;2023-06-19T07:44:36;20.30;1.00
23597;DHT22;40226;50.874;4.394;2023-06-19T07:47:01;20.10;1.00
23597;DHT22;40226;50.874;4.394;2023-06-19T07:49:27;20.50;1.00
23597;DHT22;40226;50.874;4.394;2023-06-19T07:51:53;20.80;1.00
23597;DHT22;40226;50.874;4.394;2023-06-19T07:54:18;20.60;1.00
23597;DHT22;40226;50.874;4.394;2023-06-19T07:56:48;20.40;1.00
23597;DHT22;40226;50.874;4.394;2023-06-19T07:59:13;20.40;1.00
23597;DHT22;40226;50.874;4.394;2023-06-19T08:01:39;20.40;1.00
23597;DHT22;40226;50.874;4.394;2023-06-19T08:04:06;20.50;1.00
23597;DHT22;40226;50.874;4.394;2023-06-19T08:06:32;20.60;1.00
23597;DHT22;40226;50.874;4.394;2023-06-19T08:08:57;20.60;1.00
23597;DHT22;40226;50.874;4.394;2023-06-19T08:11:23;20.60;1.00
23597;DHT22;40226;50.874;4.394;2023-06-19T08:13:49;20.70;1.00
23597;DHT22;40226;50.874;4.394;2023-06-19T08:16:14;20.60;1.00
23597;DHT22;40226;50.874;4.394;2023-06-19T08:18:40;20.70;1.00
23597;DHT22;40226;50.874;4.394;2023-06-19T08:21:06;20.60;1.00
23597;DHT22;40226;50.874;4.394;2023-06-19T08:23:31;20.80;1.00
23597;DHT22;40226;50.874;4.394;2023-06-19T08:25:57;21.00;1.00
23597;DHT22;40226;50.874;4.394;2023-06-19T08:28:23;21.00;1.00
23597;DHT22;40226;50.874;4.394;2023-06-19T08:30:49;20.80;1.00
23597;DHT22;40226;50.874;4.394;2023-06-19T08:33:15;20.70;1.00
23597;DHT22;40226;50.874;4.394;2023-06-19T08:35:40;20.80;1.00
23597;DHT22;40226;50.874;4.394;2023-06-19T08:38:06;21.10;1.00
23597;DHT22;40226;50.874;4.394;2023-06-19T08:40:32;21.20;1.00
23597;DHT22;40226;50.874;4.394;2023-06-19T08:42:58;21.30;1.00
23597;DHT22;40226;50.874;4.394;2023-06-19T08:45:26;21.30;1.00
23597;DHT22;40226;50.874;4.394;2023-06-19T08:47:58;21.40;1.00
23597;DHT22;40226;50.874;4.394;2023-06-19T08:50:24;21.40;1.00
23597;DHT22;40226;50.874;4.394;2023-06-19T08:52:50;21.70;1.00
23597;DHT22;40226;50.874;4.394;2023-06-19T08:55:15;21.70;99.90
23597;DHT22;40226;50.874;4.394;2023-06-19T08:57:41;21.50;99.90
23597;DHT22;40226;50.874;4.394;2023-06-19T09:00:07;21.40;1.00
23597;DHT22;40226;50.874;4.394;2023-06-19T09:02:38;21.50;1.00
23597;DHT22;40226;50.874;4.394;2023-06-19T09:05:12;21.80;99.90
23597;DHT22;40226;50.874;4.394;2023-06-19T09:07:38;21.80;99.90
23597;DHT22;40226;50.874;4.394;2023-06-19T09:10:22;21.90;99.90
23597;DHT22;40226;50.874;4.394;2023-06-19T09:13:02;21.80;99.90
23597;DHT22;40226;50.874;4.394;2023-06-19T09:15:40;21.60;99.90
23597;DHT22;40226;50.874;4.394;2023-06-19T09:18:09;21.50;99.90
23597;DHT22;40226;50.874;4.394;2023-06-19T09:20:47;21.70;99.90
23597;DHT22;40226;50.874;4.394;2023-06-19T09:23:13;22.00;99.90
23597;DHT22;40226;50.874;4.394;2023-06-19T09:25:58;22.10;99.90
23597;DHT22;40226;50.874;4.394;2023-06-19T09:28:26;22.40;99.90
23597;DHT22;40226;50.874;4.394;2023-06-19T09:31:00;22.40;97.10
23597;DHT22;40226;50.874;4.394;2023-06-19T09:33:32;22.60;20.40
23597;DHT22;40226;50.874;4.394;2023-06-19T09:35:59;22.40;87.00
23597;DHT22;40226;50.874;4.394;2023-06-19T09:38:27;22.90;1.00
23597;DHT22;40226;50.874;4.394;2023-06-19T09:40:53;22.50;1.00
23597;DHT22;40226;50.874;4.394;2023-06-19T09:43:26;22.80;1.00
23597;DHT22;40226;50.874;4.394;2023-06-19T09:45:56;23.10;1.00
23597;DHT22;40226;50.874;4.394;2023-06-19T09:48:28;23.50;1.00
23597;DHT22;40226;50.874;4.394;2023-06-19T09:51:05;23.30;99.90
23597;DHT22;40226;50.874;4.394;2023-06-19T09:53:34;23.20;1.00
23597;DHT22;40226;50.874;4.394;2023-06-19T09:55:59;23.60;99.90
23597;DHT22;40226;50.874;4.394;2023-06-19T09:58:26;23.50;99.90
23597;DHT22;40226;50.874;4.394;2023-06-19T10:00:53;23.10;99.90
23597;DHT22;40226;50.874;4.394;2023-06-19T10:03:20;23.10;99.90
23597;DHT22;40226;50.874;4.394;2023-06-19T10:05:46;23.50;99.90
23597;DHT22;40226;50.874;4.394;2023-06-19T10:08:11;23.50;9.70
23597;DHT22;40226;50.874;4.394;2023-06-19T10:10:46;23.20;65.60
23597;DHT22;40226;50.874;4.394;2023-06-19T10:13:15;23.10;99.90
23597;DHT22;40226;50.874;4.394;2023-06-19T10:15:44;23.10;99.90
23597;DHT22;40226;50.874;4.394;2023-06-19T10:18:14;23.20;99.90
23597;DHT22;40226;50.874;4.394;2023-06-19T10:20:44;23.30;16.50
23597;DHT22;40226;50.874;4.394;2023-06-19T10:23:18;23.00;99.90
23597;DHT22;40226;50.874;4.394;2023-06-19T10:25:45;23.00;99.90
23597;DHT22;40226;50.874;4.394;2023-06-19T10:28:27;23.30;99.90
23597;DHT22;40226;50.874;4.394;2023-06-19T10:31:04;23.20;1.00
23597;DHT22;40226;50.874;4.394;2023-06-19T10:33:32;23.60;1.00
23597;DHT22;40226;50.874;4.394;2023-06-19T10:35:59;23.80;1.00
23597;DHT22;40226;50.874;4.394;2023-06-19T10:38:25;23.80;1.00
23597;DHT22;40226;50.874;4.394;2023-06-19T10:40:51;24.10;99.90
23597;DHT22;40226;50.874;4.394;2023-06-19T10:43:24;24.70;99.90
23597;DHT22;40226;50.874;4.394;2023-06-19T10:45:53;24.70;1.00
23597;DHT22;40226;50.874;4.394;2023-06-19T10:48:24;25.00;1.00
23597;DHT22;40226;50.874;4.394;2023-06-19T10:50:50;25.20;99.90
23597;DHT22;40226;50.874;4.394;2023-06-19T10:53:26;25.30;1.00
23597;DHT22;40226;50.874;4.394;2023-06-19T10:55:57;25.00;37.00
23597;DHT22;40226;50.874;4.394;2023-06-19T10:58:24;24.40;1.00
23597;DHT22;40226;50.874;4.394;2023-06-19T11:00:50;24.70;1.00
23597;DHT22;40226;50.874;4.394;2023-06-19T11:03:16;24.90;99.90
23597;DHT22;40226;50.874;4.394;2023-06-19T11:05:44;24.80;92.40
23597;DHT22;40226;50.874;4.394;2023-06-19T11:08:10;24.80;99.90
23597;DHT22;40226;50.874;4.394;2023-06-19T11:10:36;24.30;99.90
23597;DHT22;40226;50.874;4.394;2023-06-19T11:13:02;24.30;99.90
23597;DHT22;40226;50.874;4.394;2023-06-19T11:15:32;25.00;99.90
23597;DHT22;40226;50.874;4.394;2023-06-19T11:17:59;25.60;86.70
23597;DHT22;40226;50.874;4.394;2023-06-19T11:20:25;25.80;1.00
23597;DHT22;40226;50.874;4.394;2023-06-19T11:23:00;26.60;1.00
23597;DHT22;40226;50.874;4.394;2023-06-19T11:25:39;27.90;1.00
23597;DHT22;40226;50.874;4.394;2023-06-19T11:28:14;27.80;99.90
23597;DHT22;40226;50.874;4.394;2023-06-19T11:30:40;29.20;99.90
23597;DHT22;40226;50.874;4.394;2023-06-19T11:33:21;28.70;1.00
23597;DHT22;40226;50.874;4.394;2023-06-19T11:35:54;28.40;1.00
23597;DHT22;40226;50.874;4.394;2023-06-19T11:38:24;29.60;1.00
23597;DHT22;40226;50.874;4.394;2023-06-19T11:40:51;31.20;99.90
23597;DHT22;40226;50.874;4.394;2023-06-19T11:45:53;29.10;99.90
23597;DHT22;40226;50.874;4.394;2023-06-19T11:48:26;29.10;99.90
23597;DHT22;40226;50.874;4.394;2023-06-19T11:50:52;28.50;99.90
23597;DHT22;40226;50.874;4.394;2023-06-19T11:53:19;28.10;99.90
23597;DHT22;40226;50.874;4.394;2023-06-19T11:55:45;29.40;99.90
23597;DHT22;40226;50.874;4.394;2023-06-19T11:58:11;29.80;99.90
23597;DHT22;40226;50.874;4.394;2023-06-19T12:00:37;30.20;99.90
23597;DHT22;40226;50.874;4.394;2023-06-19T12:03:03;31.30;99.90
23597;DHT22;40226;50.874;4.394;2023-06-19T12:05:29;29.80;99.90
23597;DHT22;40226;50.874;4.394;2023-06-19T12:07:55;29.90;99.90
23597;DHT22;40226;50.874;4.394;2023-06-19T12:10:20;31.30;99.90
23597;DHT22;40226;50.874;4.394;2023-06-19T12:12:46;32.70;40.90
23597;DHT22;40226;50.874;4.394;2023-06-19T12:15:12;31.00;1.70
23597;DHT22;40226;50.874;4.394;2023-06-19T12:17:37;31.90;1.00
23597;DHT22;40226;50.874;4.394;2023-06-19T12:20:03;31.70;1.00
23597;DHT22;40226;50.874;4.394;2023-06-19T12:22:33;33.00;1.00
23597;DHT22;40226;50.874;4.394;2023-06-19T12:24:59;34.00;1.00
23597;DHT22;40226;50.874;4.394;2023-06-19T12:27:25;33.60;1.00
23597;DHT22;40226;50.874;4.394;2023-06-19T12:29:50;34.20;1.00
23597;DHT22;40226;50.874;4.394;2023-06-19T12:32:17;34.20;1.00
23597;DHT22;40226;50.874;4.394;2023-06-19T12:34:43;34.90;1.00
23597;DHT22;40226;50.874;4.394;2023-06-19T12:37:14;34.80;1.00
23597;DHT22;40226;50.874;4.394;2023-06-19T12:39:40;34.30;1.00
23597;DHT22;40226;50.874;4.394;2023-06-19T12:42:07;34.10;1.00
23597;DHT22;40226;50.874;4.394;2023-06-19T12:44:33;33.80;1.00
23597;DHT22;40226;50.874;4.394;2023-06-19T12:46:58;33.40;1.00
23597;DHT22;40226;50.874;4.394;2023-06-19T12:49:25;33.20;1.00
23597;DHT22;40226;50.874;4.394;2023-06-19T12:51:51;34.80;1.00
23597;DHT22;40226;50.874;4.394;2023-06-19T12:54:17;36.60;1.00
23597;DHT22;40226;50.874;4.394;2023-06-19T12:56:44;37.10;1.00
23597;DHT22;40226;50.874;4.394;2023-06-19T12:59:10;36.50;1.00
23597;DHT22;40226;50.874;4.394;2023-06-19T13:01:35;36.30;1.00
23597;DHT22;40226;50.874;4.394;2023-06-19T13:04:01;35.10;1.00
23597;DHT22;40226;50.874;4.394;2023-06-19T13:06:26;35.60;1.00
23597;DHT22;40226;50.874;4.394;2023-06-19T13:08:52;35.50;1.00
23597;DHT22;40226;50.874;4.394;2023-06-19T13:11:18;33.20;1.00
23597;DHT22;40226;50.874;4.394;2023-06-19T13:13:43;34.10;1.00
23597;DHT22;40226;50.874;4.394;2023-06-19T13:16:09;33.80;1.00
23597;DHT22;40226;50.874;4.394;2023-06-19T13:18:37;33.70;1.00
23597;DHT22;40226;50.874;4.394;2023-06-19T13:21:03;34.40;1.00
23597;DHT22;40226;50.874;4.394;2023-06-19T13:23:28;35.80;1.00
23597;DHT22;40226;50.874;4.394;2023-06-19T13:25:56;37.00;1.00
23597;DHT22;40226;50.874;4.394;2023-06-19T13:28:22;37.50;1.00
23597;DHT22;40226;50.874;4.394;2023-06-19T13:30:48;37.00;1.00
23597;DHT22;40226;50.874;4.394;2023-06-19T13:33:14;37.80;1.00
23597;DHT22;40226;50.874;4.394;2023-06-19T13:35:40;37.70;1.00
23597;DHT22;40226;50.874;4.394;2023-06-19T13:38:05;37.50;1.00
23597;DHT22;40226;50.874;4.394;2023-06-19T13:40:31;37.10;1.00
23597;DHT22;40226;50.874;4.394;2023-06-19T13:42:57;38.30;1.00
23597;DHT22;40226;50.874;4.394;2023-06-19T13:45:24;39.30;1.00
23597;DHT22;40226;50.874;4.394;2023-06-19T13:47:49;39.30;1.00
23597;DHT22;40226;50.874;4.394;2023-06-19T13:50:15;39.60;1.00
23597;DHT22;40226;50.874;4.394;2023-06-19T13:52:45;39.40;1.00
23597;DHT22;40226;50.874;4.394;2023-06-19T13:55:10;39.10;99.90
23597;DHT22;40226;50.874;4.394;2023-06-19T13:57:36;39.50;99.90
23597;DHT22;40226;50.874;4.394;2023-06-19T14:00:03;40.20;99.90
23597;DHT22;40226;50.874;4.394;2023-06-19T14:02:28;40.70;99.90
23597;DHT22;40226;50.874;4.394;2023-06-19T14:04:54;41.10;99.90
23597;DHT22;40226;50.874;4.394;2023-06-19T14:07:20;39.60;99.90
23597;DHT22;40226;50.874;4.394;2023-06-19T14:09:48;38.20;99.90
23597;DHT22;40226;50.874;4.394;2023-06-19T14:12:14;38.10;99.90
23597;DHT22;40226;50.874;4.394;2023-06-19T14:14:39;38.60;99.90
23597;DHT22;40226;50.874;4.394;2023-06-19T14:17:05;37.80;99.90
23597;DHT22;40226;50.874;4.394;2023-06-19T14:19:31;37.60;99.90
23597;DHT22;40226;50.874;4.394;2023-06-19T14:21:57;38.80;99.90
23597;DHT22;40226;50.874;4.394;2023-06-19T14:24:23;39.30;99.90
23597;DHT22;40226;50.874;4.394;2023-06-19T14:26:50;40.30;99.90
23597;DHT22;40226;50.874;4.394;2023-06-19T14:29:15;40.40;99.90
23597;DHT22;40226;50.874;4.394;2023-06-19T14:31:44;41.70;99.90
23597;DHT22;40226;50.874;4.394;2023-06-19T14:34:09;38.30;99.90
23597;DHT22;40226;50.874;4.394;2023-06-19T14:36:38;35.20;99.90
23597;DHT22;40226;50.874;4.394;2023-06-19T14:39:04;34.80;99.90
23597;DHT22;40226;50.874;4.394;2023-06-19T14:41:29;35.30;99.90
23597;DHT22;40226;50.874;4.394;2023-06-19T14:43:55;34.60;99.90
23597;DHT22;40226;50.874;4.394;2023-06-19T14:46:21;34.70;99.90
23597;DHT22;40226;50.874;4.394;2023-06-19T14:48:46;34.00;99.90
23597;DHT22;40226;50.874;4.394;2023-06-19T14:51:12;34.20;99.90
23597;DHT22;40226;50.874;4.394;2023-06-19T14:53:38;34.40;99.90
23597;DHT22;40226;50.874;4.394;2023-06-19T14:56:04;34.40;99.90
23597;DHT22;40226;50.874;4.394;2023-06-19T14:58:29;34.70;99.90
23597;DHT22;40226;50.874;4.394;2023-06-19T15:00:55;35.50;99.90
23597;DHT22;40226;50.874;4.394;2023-06-19T15:03:21;35.10;99.90
23597;DHT22;40226;50.874;4.394;2023-06-19T15:05:47;33.70;99.90
23597;DHT22;40226;50.874;4.394;2023-06-19T15:08:12;32.70;99.90
23597;DHT22;40226;50.874;4.394;2023-06-19T15:10:38;31.40;99.90
23597;DHT22;40226;50.874;4.394;2023-06-19T15:13:04;31.00;99.90
23597;DHT22;40226;50.874;4.394;2023-06-19T15:15:30;31.50;99.90
23597;DHT22;40226;50.874;4.394;2023-06-19T15:17:56;32.00;99.90
23597;DHT22;40226;50.874;4.394;2023-06-19T15:20:23;32.70;99.90
23597;DHT22;40226;50.874;4.394;2023-06-19T15:22:48;33.50;99.90
23597;DHT22;40226;50.874;4.394;2023-06-19T15:25:14;34.00;99.90
23597;DHT22;40226;50.874;4.394;2023-06-19T15:27:40;34.30;99.90
23597;DHT22;40226;50.874;4.394;2023-06-19T15:30:06;33.80;99.90
23597;DHT22;40226;50.874;4.394;2023-06-19T15:32:33;34.90;99.90
23597;DHT22;40226;50.874;4.394;2023-06-19T15:34:59;34.50;99.90
23597;DHT22;40226;50.874;4.394;2023-06-19T15:37:27;34.20;99.90
23597;DHT22;40226;50.874;4.394;2023-06-19T15:39:52;34.30;99.90